Time;durP1;ratioP1;P1;durP2;ratioP2;P2;SDS_P1;SDS_P2;PMS_P1;PMS_P2;Temp;Humidity;BMP_temperature;BMP_pressure;BME280_temperature;BME280_humidity;BME280_pressure;Samples;Min_cycle;Max_cycle;Signal;HPM_P1;HPM_P2
2022/05/03 00:00:37;;;;;;;13.85;7.60;;;;;;;;;;4920950;29;20476;-79
2022/05/03 00:03:27;;;;;;;15.35;7.53;;;;;;;;;;4918435;29;20052;-79
2022/05/03 00:06:19;;;;;;;17.90;7.80;;;;;;;;;;4918417;29;20048;-79
2022/05/03 00:09:07;;;;;;;18.48;7.47;;;;;;;;;;4921182;29;20044;-79
2022/05/03 00:12:05;;;;;;;16.25;7.45;;;;;;;;;;4921048;29;20036;-79
2022/05/03 00:14:55;;;;;;;14.05;7.10;;;;;;;;;;4926791;29;20052;-78
2022/05/03 00:17:42;;;;;;;19.83;7.90;;;;;;;;;;4921003;29;20052;-80
2022/05/03 00:20:27;;;;;;;13.02;7.05;;;;;;;;;;4926998;29;20048;-80
2022/05/03 00:23:13;;;;;;;13.15;7.15;;;;;;;;;;4927150;29;20052;-79
2022/05/03 00:25:58;;;;;;;14.85;7.40;;;;;;;;;;4926804;29;20407;-79
2022/05/03 00:28:44;;;;;;;14.73;6.90;;;;;;;;;;4920531;29;20073;-79
2022/05/03 00:31:31;;;;;;;16.77;7.75;;;;;;;;;;4926503;29;20052;-80
2022/05/03 00:34:17;;;;;;;17.00;7.50;;;;;;;;;;4920457;29;20098;-79
2022/05/03 00:37:03;;;;;;;19.33;7.55;;;;;;;;;;4920958;29;20380;-80
2022/05/03 00:39:48;;;;;;;20.83;7.10;;;;;;;;;;4920683;29;20048;-80
2022/05/03 00:42:48;;;;;;;13.38;6.25;;;;;;;;;;4920116;29;20480;-80
2022/05/03 00:46:14;;;;;;;16.80;8.10;;;;;;;;;;4926891;29;20052;-80
2022/05/03 00:49:25;;;;;;;13.93;6.22;;;;;;;;;;4885293;29;20468;-79
2022/05/03 00:52:47;;;;;;;12.05;5.88;;;;;;;;;;4920480;29;20052;-79
2022/05/03 00:56:06;;;;;;;9.63;5.13;;;;;;;;;;4911735;29;20052;-79
2022/05/03 00:59:11;;;;;;;6.68;3.97;;;;;;;;;;4923961;29;20056;-80
2022/05/03 01:02:06;;;;;;;13.55;5.60;;;;;;;;;;4926296;29;20052;-79
2022/05/03 01:05:09;;;;;;;14.20;5.38;;;;;;;;;;4920024;29;20048;-80
2022/05/03 01:08:05;;;;;;;10.75;4.78;;;;;;;;;;4926453;29;20059;-81
2022/05/03 01:11:15;;;;;;;9.48;4.47;;;;;;;;;;4925880;29;20044;-79
2022/05/03 01:14:08;;;;;;;6.43;4.35;;;;;;;;;;4926289;29;20056;-80
2022/05/03 01:16:59;;;;;;;7.85;4.22;;;;;;;;;;4925481;29;20048;-79
2022/05/03 01:20:06;;;;;;;6.78;3.90;;;;;;;;;;4926330;29;20051;-79
2022/05/03 01:23:20;;;;;;;8.18;4.03;;;;;;;;;;4925693;29;20416;-81
2022/05/03 01:26:28;;;;;;;10.77;3.97;;;;;;;;;;4925820;29;20040;-80
2022/05/03 01:29:31;;;;;;;11.38;5.10;;;;;;;;;;4920034;29;20387;-80
2022/05/03 01:32:19;;;;;;;19.00;7.55;;;;;;;;;;4918934;29;20484;-79
2022/05/03 01:35:06;;;;;;;28.83;14.13;;;;;;;;;;4919459;29;20056;-80
2022/05/03 01:38:03;;;;;;;22.63;11.70;;;;;;;;;;4925438;29;20052;-79
2022/05/03 01:40:57;;;;;;;30.55;14.60;;;;;;;;;;4925870;29;20052;-80
2022/05/03 01:44:08;;;;;;;34.75;15.40;;;;;;;;;;4925689;29;20052;-79
2022/05/03 01:46:57;;;;;;;26.95;12.77;;;;;;;;;;4919494;29;20044;-78
2022/05/03 01:53:16;;;;;;;19.10;8.63;;;;;;;;;;4918848;29;20052;-81
2022/05/03 01:56:17;;;;;;;19.20;8.98;;;;;;;;;;4918888;29;20040;-79
2022/05/03 01:59:09;;;;;;;21.98;10.35;;;;;;;;;;4904562;29;20060;-81
2022/05/03 02:02:17;;;;;;;27.08;13.45;;;;;;;;;;4905008;29;20476;-80
2022/05/03 02:05:07;;;;;;;44.45;21.60;;;;;;;;;;4924855;29;20064;-80
2022/05/03 02:07:57;;;;;;;35.47;19.05;;;;;;;;;;4925547;29;20052;-80
2022/05/03 02:11:11;;;;;;;39.22;20.95;;;;;;;;;;4918765;29;20052;-80
2022/05/03 02:17:39;;;;;;;34.47;17.08;;;;;;;;;;4925053;29;20056;-80
2022/05/03 02:20:32;;;;;;;37.88;19.58;;;;;;;;;;4918116;29;20048;-81
2022/05/03 02:23:39;;;;;;;35.72;18.65;;;;;;;;;;4918718;29;20040;-80
2022/05/03 02:26:36;;;;;;;33.08;18.15;;;;;;;;;;4910289;29;20048;-81
2022/05/03 02:29:44;;;;;;;43.50;19.30;;;;;;;;;;4917754;29;20052;-80
2022/05/03 02:32:44;;;;;;;41.35;18.95;;;;;;;;;;4918420;29;20512;-79
2022/05/03 02:35:35;;;;;;;36.42;17.35;;;;;;;;;;4918576;29;20052;-80
2022/05/03 02:38:28;;;;;;;35.58;16.45;;;;;;;;;;4918342;29;20048;-79
2022/05/03 02:41:18;;;;;;;36.08;15.82;;;;;;;;;;4917963;29;20048;-80
2022/05/03 02:44:05;;;;;;;36.60;15.55;;;;;;;;;;4918131;29;20048;-79
2022/05/03 02:47:01;;;;;;;33.95;17.35;;;;;;;;;;4918832;29;20040;-80
2022/05/03 02:49:59;;;;;;;32.50;16.27;;;;;;;;;;4923079;29;20052;-81
2022/05/03 02:52:54;;;;;;;22.98;11.38;;;;;;;;;;4927515;29;20051;-76
2022/05/03 02:56:12;;;;;;;24.33;12.57;;;;;;;;;;4951047;29;20055;-80
2022/05/03 03:02:43;;;;;;;14.30;9.80;;;;;;;;;;4903407;29;20407;-79
2022/05/03 03:05:30;;;;;;;15.75;9.77;;;;;;;;;;4907792;29;20048;-79
2022/05/03 03:08:21;;;;;;;15.90;9.40;;;;;;;;;;4919939;29;20052;-80
2022/05/03 03:11:15;;;;;;;15.27;9.55;;;;;;;;;;4905355;29;20480;-79
2022/05/03 03:14:13;;;;;;;14.45;7.78;;;;;;;;;;4900803;29;20048;-81
2022/05/03 03:17:07;;;;;;;12.77;6.72;;;;;;;;;;4932392;29;20044;-79
2022/05/03 03:19:58;;;;;;;10.70;5.78;;;;;;;;;;4905114;29;20496;-79
2022/05/03 03:22:46;;;;;;;11.55;6.82;;;;;;;;;;4905956;29;20048;-78
2022/05/03 03:25:33;;;;;;;12.00;7.97;;;;;;;;;;4909137;29;20044;-79
2022/05/03 03:28:22;;;;;;;17.15;8.10;;;;;;;;;;4917611;29;20048;-80
2022/05/03 03:31:09;;;;;;;12.55;7.45;;;;;;;;;;4917333;29;20052;-79
2022/05/03 03:33:55;;;;;;;14.40;7.30;;;;;;;;;;4923905;29;20044;-79
2022/05/03 03:36:42;;;;;;;12.75;7.05;;;;;;;;;;4923316;29;20484;-80
2022/05/03 03:39:31;;;;;;;10.60;6.63;;;;;;;;;;4917483;29;20052;-80
2022/05/03 03:42:17;;;;;;;12.77;7.07;;;;;;;;;;4926622;29;20044;-79
2022/05/03 03:45:07;;;;;;;13.15;6.65;;;;;;;;;;4906652;29;20052;-79
2022/05/03 03:47:55;;;;;;;11.98;6.93;;;;;;;;;;4921354;29;20047;-80
2022/05/03 03:50:44;;;;;;;10.52;6.93;;;;;;;;;;4920672;29;20048;-79
2022/05/03 03:53:30;;;;;;;9.18;6.57;;;;;;;;;;4927554;29;20415;-78
2022/05/03 03:56:15;;;;;;;11.63;7.00;;;;;;;;;;4902624;29;20053;-79
2022/05/03 03:59:02;;;;;;;14.23;6.57;;;;;;;;;;4904985;29;20060;-79
2022/05/03 04:01:49;;;;;;;9.77;6.20;;;;;;;;;;4907396;29;20082;-81
2022/05/03 04:04:36;;;;;;;14.93;6.15;;;;;;;;;;4927013;29;20468;-79
2022/05/03 04:07:21;;;;;;;21.13;8.68;;;;;;;;;;4927326;29;20052;-79
2022/05/03 04:10:07;;;;;;;25.55;10.90;;;;;;;;;;4927355;29;20425;-79
2022/05/03 04:12:52;;;;;;;11.35;6.35;;;;;;;;;;4920607;29;20060;-78
2022/05/03 04:15:38;;;;;;;13.50;5.65;;;;;;;;;;4927134;29;20056;-79
2022/05/03 04:18:44;;;;;;;16.80;6.20;;;;;;;;;;4920646;29;20052;-78
2022/05/03 04:21:29;;;;;;;15.63;7.57;;;;;;;;;;4927429;29;20403;-79
2022/05/03 04:24:14;;;;;;;12.75;7.13;;;;;;;;;;4926815;29;20483;-79
2022/05/03 04:27:00;;;;;;;14.70;7.72;;;;;;;;;;4927032;29;20048;-80
2022/05/03 04:29:47;;;;;;;13.90;8.07;;;;;;;;;;4922094;29;20044;-79
2022/05/03 04:32:33;;;;;;;12.32;7.30;;;;;;;;;;4927900;29;20056;-77
2022/05/03 04:35:19;;;;;;;13.10;7.30;;;;;;;;;;4921795;29;20052;-80
2022/05/03 04:38:04;;;;;;;20.92;8.13;;;;;;;;;;4928725;29;20052;-80
2022/05/03 04:40:50;;;;;;;15.25;8.18;;;;;;;;;;4913711;29;20048;-80
2022/05/03 04:43:35;;;;;;;13.57;7.47;;;;;;;;;;4921613;29;20052;-78
2022/05/03 04:46:21;;;;;;;19.35;8.05;;;;;;;;;;4921045;29;20056;-81
2022/05/03 04:49:06;;;;;;;21.50;8.10;;;;;;;;;;4926773;29;20063;-79
2022/05/03 04:51:52;;;;;;;13.82;8.32;;;;;;;;;;4926177;29;20052;-78
2022/05/03 04:54:38;;;;;;;14.60;8.38;;;;;;;;;;4926157;29;20396;-78
2022/05/03 04:57:23;;;;;;;20.30;11.10;;;;;;;;;;4926677;29;20052;-81
2022/05/03 05:00:09;;;;;;;14.80;8.27;;;;;;;;;;4919584;29;20056;-79
2022/05/03 05:02:54;;;;;;;21.55;8.73;;;;;;;;;;4926537;29;20399;-80
2022/05/03 05:05:39;;;;;;;19.73;7.47;;;;;;;;;;4926058;29;20052;-79
2022/05/03 05:08:25;;;;;;;15.93;8.20;;;;;;;;;;4911820;29;20471;-80
2022/05/03 05:11:11;;;;;;;13.98;7.90;;;;;;;;;;4917490;29;20060;-80
2022/05/03 05:13:56;;;;;;;13.50;8.02;;;;;;;;;;4922303;29;20399;-81
2022/05/03 05:16:41;;;;;;;12.25;8.10;;;;;;;;;;4945158;29;20488;-80
2022/05/03 05:19:27;;;;;;;13.18;8.50;;;;;;;;;;4938624;29;20048;-79
2022/05/03 05:22:12;;;;;;;14.20;8.80;;;;;;;;;;4929000;29;20048;-81
2022/05/03 05:24:58;;;;;;;15.02;8.40;;;;;;;;;;4906994;29;20045;-80
2022/05/03 05:27:43;;;;;;;14.85;7.93;;;;;;;;;;4912545;29;20051;-81
2022/05/03 05:30:28;;;;;;;11.93;7.63;;;;;;;;;;4923373;29;20048;-80
2022/05/03 05:33:14;;;;;;;16.73;8.02;;;;;;;;;;4925765;29;20052;-79
2022/05/03 05:36:00;;;;;;;23.88;9.13;;;;;;;;;;4918060;29;20056;-81
2022/05/03 05:38:48;;;;;;;11.70;8.02;;;;;;;;;;4913349;29;20052;-80
2022/05/03 05:41:34;;;;;;;15.52;8.68;;;;;;;;;;4935154;29;20043;-80
2022/05/03 05:44:19;;;;;;;15.18;8.90;;;;;;;;;;4938203;29;20044;-79
2022/05/03 05:47:05;;;;;;;16.02;9.68;;;;;;;;;;4941236;29;20056;-80
2022/05/03 05:49:50;;;;;;;15.50;9.00;;;;;;;;;;4935937;29;20036;-80
2022/05/03 05:55:42;;;;;;;19.27;9.70;;;;;;;;;;4931010;29;20060;-79
2022/05/03 05:58:27;;;;;;;15.25;9.00;;;;;;;;;;4926299;29;20401;-78
2022/05/03 06:01:13;;;;;;;16.10;9.38;;;;;;;;;;4919221;29;20056;-79
2022/05/03 06:03:59;;;;;;;16.13;9.70;;;;;;;;;;4895906;29;20048;-79
2022/05/03 06:06:44;;;;;;;14.13;9.40;;;;;;;;;;4924310;29;20391;-83
2022/05/03 06:09:28;;;;;;;21.17;9.63;;;;;;;;;;4914219;29;20044;-78
2022/05/03 06:12:14;;;;;;;15.10;9.77;;;;;;;;;;4910095;29;20052;-80
2022/05/03 06:15:00;;;;;;;16.00;11.10;;;;;;;;;;4917359;29;20052;-79
2022/05/03 06:17:46;;;;;;;18.83;11.57;;;;;;;;;;4917246;29;20048;-80
2022/05/03 06:20:31;;;;;;;22.67;12.35;;;;;;;;;;4943463;29;20073;-79
2022/05/03 06:23:15;;;;;;;21.23;12.63;;;;;;;;;;4918805;29;20055;-79
2022/05/03 06:26:04;;;;;;;19.15;12.25;;;;;;;;;;4925609;29;20502;-81
2022/05/03 06:28:48;;;;;;;20.20;13.52;;;;;;;;;;4925047;29;20048;-78
2022/05/03 06:31:37;;;;;;;19.50;11.60;;;;;;;;;;4923452;29;20049;-78
2022/05/03 06:34:23;;;;;;;18.75;12.63;;;;;;;;;;4934216;29;20052;-77
2022/05/03 06:37:09;;;;;;;18.75;12.48;;;;;;;;;;4925464;29;20044;-78
2022/05/03 06:39:54;;;;;;;17.33;11.63;;;;;;;;;;4924171;29;20051;-77
2022/05/03 06:42:40;;;;;;;19.83;12.73;;;;;;;;;;4925460;29;20053;-78
2022/05/03 06:45:26;;;;;;;17.48;11.57;;;;;;;;;;4923910;29;20059;-77
2022/05/03 06:48:12;;;;;;;17.27;11.05;;;;;;;;;;4924359;29;20056;-77
2022/05/03 06:50:57;;;;;;;18.73;12.25;;;;;;;;;;4924212;29;20052;-78
2022/05/03 06:53:43;;;;;;;18.55;11.18;;;;;;;;;;4923939;29;20055;-78
2022/05/03 06:56:35;;;;;;;13.23;9.10;;;;;;;;;;4917986;29;20040;-78
2022/05/03 06:59:20;;;;;;;15.75;10.25;;;;;;;;;;4919058;29;20049;-78
2022/05/03 07:02:06;;;;;;;14.52;9.38;;;;;;;;;;4923209;29;20045;-78
2022/05/03 07:04:51;;;;;;;13.88;9.82;;;;;;;;;;4923410;29;20044;-79
2022/05/03 07:07:38;;;;;;;13.20;9.55;;;;;;;;;;4924165;29;20048;-80
2022/05/03 07:10:23;;;;;;;16.90;9.85;;;;;;;;;;4922698;29;20476;-78
2022/05/03 07:13:13;;;;;;;14.15;8.95;;;;;;;;;;4924266;29;20052;-78
2022/05/03 07:15:59;;;;;;;14.95;9.63;;;;;;;;;;4923678;29;20044;-78
2022/05/03 07:24:51;;;;;;;15.27;8.35;;;;;;;;;;4942284;29;20044;-79
2022/05/03 07:27:37;;;;;;;9.80;6.35;;;;;;;;;;4936990;29;20403;-77
2022/05/03 07:30:22;;;;;;;9.80;6.93;;;;;;;;;;4924164;29;20487;-77
2022/05/03 07:33:08;;;;;;;9.88;7.15;;;;;;;;;;4923653;29;20488;-78
2022/05/03 07:35:54;;;;;;;8.38;6.75;;;;;;;;;;4918147;29;20059;-77
2022/05/03 07:38:42;;;;;;;8.93;6.68;;;;;;;;;;4915485;29;20047;-78
2022/05/03 07:41:28;;;;;;;8.25;6.43;;;;;;;;;;4917240;29;20048;-77
2022/05/03 07:44:13;;;;;;;8.50;6.35;;;;;;;;;;4911424;29;20048;-78
2022/05/03 07:46:59;;;;;;;6.82;5.25;;;;;;;;;;4913104;29;20052;-78
2022/05/03 07:49:44;;;;;;;13.60;6.80;;;;;;;;;;4927990;29;20047;-78
2022/05/03 07:52:30;;;;;;;5.43;4.47;;;;;;;;;;4921147;29;20044;-78
2022/05/03 07:55:15;;;;;;;7.97;6.10;;;;;;;;;;4904834;29;20048;-79
2022/05/03 07:58:01;;;;;;;11.15;6.50;;;;;;;;;;4905054;29;20391;-78
2022/05/03 08:00:48;;;;;;;10.55;5.75;;;;;;;;;;4916997;29;20048;-79
2022/05/03 08:03:33;;;;;;;6.35;3.63;;;;;;;;;;4924292;29;20048;-79
2022/05/03 08:06:19;;;;;;;4.88;4.22;;;;;;;;;;4939553;29;20043;-78
2022/05/03 08:09:05;;;;;;;5.97;4.28;;;;;;;;;;4904929;29;20052;-76
2022/05/03 08:11:50;;;;;;;6.50;4.65;;;;;;;;;;4919972;29;20459;-77
2022/05/03 08:14:36;;;;;;;8.38;4.57;;;;;;;;;;4919965;29;20044;-77
2022/05/03 08:17:24;;;;;;;4.38;3.30;;;;;;;;;;4913787;29;20052;-78
2022/05/03 08:20:10;;;;;;;8.50;5.43;;;;;;;;;;4913900;29;20056;-78
2022/05/03 08:22:55;;;;;;;10.95;6.20;;;;;;;;;;4913929;29;20044;-78
2022/05/03 08:25:41;;;;;;;7.57;5.25;;;;;;;;;;4903484;29;20048;-77
2022/05/03 08:28:26;;;;;;;8.70;5.25;;;;;;;;;;4907716;29;20056;-77
2022/05/03 08:31:12;;;;;;;6.13;4.72;;;;;;;;;;4926987;29;20048;-77
2022/05/03 08:34:02;;;;;;;8.32;4.95;;;;;;;;;;4926301;29;20052;-78
2022/05/03 08:42:01;;;;;;;8.77;5.22;;;;;;;;;;4927008;29;20404;-77
2022/05/03 08:42:57;;;;;;;10.05;5.45;;;;;;;;;;4926927;29;20400;-78
2022/05/03 08:45:46;;;;;;;11.10;5.97;;;;;;;;;;4926606;29;20484;-79
2022/05/03 08:48:35;;;;;;;7.95;4.60;;;;;;;;;;4926534;29;20487;-78
2022/05/03 08:51:23;;;;;;;5.20;3.78;;;;;;;;;;4926085;29;20047;-79
2022/05/03 08:54:08;;;;;;;9.57;4.85;;;;;;;;;;4936295;29;20048;-76
2022/05/03 08:56:55;;;;;;;6.55;4.97;;;;;;;;;;4927561;29;20056;-77
2022/05/03 08:59:43;;;;;;;9.32;5.68;;;;;;;;;;4929999;29;20384;-78
2022/05/03 09:02:27;;;;;;;8.75;4.93;;;;;;;;;;4934704;29;20052;-78
2022/05/03 09:05:13;;;;;;;11.25;5.70;;;;;;;;;;4914230;29;20048;-78
2022/05/03 09:08:01;;;;;;;8.48;5.50;;;;;;;;;;4920056;29;20047;-78
2022/05/03 09:10:47;;;;;;;7.38;5.32;;;;;;;;;;4945058;29;20043;-78
2022/05/03 09:13:33;;;;;;;16.27;11.68;;;;;;;;;;4945103;29;20052;-77
2022/05/03 09:16:20;;;;;;;17.27;9.95;;;;;;;;;;4945031;29;20051;-77
2022/05/03 09:19:22;;;;;;;5.78;4.20;;;;;;;;;;4945044;29;20055;-78
2022/05/03 09:25:14;;;;;;;4.88;4.15;;;;;;;;;;4906529;29;20048;-78
2022/05/03 09:28:05;;;;;;;5.60;3.80;;;;;;;;;;4900500;29;20049;-78
2022/05/03 09:30:52;;;;;;;6.40;4.50;;;;;;;;;;4906180;29;20053;-77
2022/05/03 09:33:37;;;;;;;4.40;3.65;;;;;;;;;;4906809;29;20057;-77
2022/05/03 09:36:23;;;;;;;8.00;4.47;;;;;;;;;;4906257;29;20061;-79
2022/05/03 09:39:08;;;;;;;7.20;3.88;;;;;;;;;;4926226;29;20044;-79
2022/05/03 09:42:04;;;;;;;6.72;4.35;;;;;;;;;;4933636;29;20052;-79
2022/05/03 09:44:58;;;;;;;10.13;4.53;;;;;;;;;;4914139;29;20048;-79
2022/05/03 09:47:49;;;;;;;5.07;3.65;;;;;;;;;;4944691;29;20052;-78
2022/05/03 09:50:45;;;;;;;5.68;3.50;;;;;;;;;;4942457;29;20470;-77
2022/05/03 09:53:32;;;;;;;4.47;3.70;;;;;;;;;;4917422;29;20044;-77
2022/05/03 09:56:18;;;;;;;7.65;3.88;;;;;;;;;;4927223;29;20063;-77
2022/05/03 09:59:08;;;;;;;5.90;4.65;;;;;;;;;;4935759;29;20047;-79
2022/05/03 10:01:54;;;;;;;5.28;4.10;;;;;;;;;;4935553;29;20056;-78
2022/05/03 10:04:39;;;;;;;6.30;4.28;;;;;;;;;;4917002;29;20060;-81
2022/05/03 10:07:26;;;;;;;7.20;4.22;;;;;;;;;;4915840;29;20040;-78
2022/05/03 10:10:13;;;;;;;7.03;3.50;;;;;;;;;;4899817;29;20056;-77
2022/05/03 10:12:59;;;;;;;4.30;3.42;;;;;;;;;;4908258;29;20048;-79
2022/05/03 10:22:05;;;;;;;4.78;3.40;;;;;;;;;;4914250;29;20488;-78
2022/05/03 10:24:55;;;;;;;15.75;3.50;;;;;;;;;;4899726;29;20392;-79
2022/05/03 10:27:54;;;;;;;3.92;2.90;;;;;;;;;;4906946;29;20488;-79
2022/05/03 10:31:05;;;;;;;4.18;2.78;;;;;;;;;;4906592;29;20053;-78
2022/05/03 10:33:51;;;;;;;4.43;2.70;;;;;;;;;;4916366;29;20048;-78
2022/05/03 10:36:41;;;;;;;9.82;3.10;;;;;;;;;;4914383;29;20056;-77
2022/05/03 10:39:27;;;;;;;3.97;2.67;;;;;;;;;;4904061;29;20485;-78
2022/05/03 10:42:15;;;;;;;8.30;3.17;;;;;;;;;;4919539;29;20056;-78
2022/05/03 10:45:13;;;;;;;5.47;3.08;;;;;;;;;;4934804;29;20476;-76
2022/05/03 10:47:59;;;;;;;6.43;3.78;;;;;;;;;;4916310;29;20467;-77
2022/05/03 10:50:44;;;;;;;3.88;3.10;;;;;;;;;;4919875;29;20472;-79
2022/05/03 10:53:35;;;;;;;4.18;2.80;;;;;;;;;;4922947;29;20047;-78
2022/05/03 10:56:21;;;;;;;3.83;3.20;;;;;;;;;;4936614;29;20048;-77
2022/05/03 10:59:10;;;;;;;8.15;2.90;;;;;;;;;;4927626;29;20052;-76
2022/05/03 11:01:55;;;;;;;5.38;3.30;;;;;;;;;;4934825;29;20047;-75
2022/05/03 11:05:18;;;;;;;4.55;3.30;;;;;;;;;;4923948;29;20056;-77
2022/05/03 11:08:15;;;;;;;5.25;3.30;;;;;;;;;;4923460;29;20056;-77
2022/05/03 11:11:00;;;;;;;5.50;3.50;;;;;;;;;;4924075;29;20476;-78
2022/05/03 11:13:46;;;;;;;6.28;3.38;;;;;;;;;;4917601;29;20392;-78
2022/05/03 11:16:34;;;;;;;4.53;3.10;;;;;;;;;;4923724;29;20052;-78
2022/05/03 11:19:22;;;;;;;7.18;3.20;;;;;;;;;;4917538;29;20052;-77
2022/05/03 11:22:11;;;;;;;5.43;2.72;;;;;;;;;;4923998;29;20052;-78
2022/05/03 11:24:58;;;;;;;3.42;1.88;;;;;;;;;;4923690;29;20048;-77
2022/05/03 11:27:44;;;;;;;3.10;2.40;;;;;;;;;;4923056;29;20048;-78
2022/05/03 11:30:30;;;;;;;3.25;2.00;;;;;;;;;;4900103;29;20048;-77
2022/05/03 11:33:15;;;;;;;5.45;2.25;;;;;;;;;;4925524;29;20041;-77
2022/05/03 11:36:00;;;;;;;5.30;1.90;;;;;;;;;;4913024;29;20044;-76
2022/05/03 11:38:48;;;;;;;3.00;1.98;;;;;;;;;;4911403;29;20481;-77
2022/05/03 11:41:32;;;;;;;4.75;2.10;;;;;;;;;;4921368;29;20051;-77
2022/05/03 11:44:18;;;;;;;3.80;1.80;;;;;;;;;;4917378;29;20052;-76
2022/05/03 11:47:03;;;;;;;2.88;2.33;;;;;;;;;;4923078;29;20056;-77
2022/05/03 11:49:50;;;;;;;3.83;1.92;;;;;;;;;;4920360;29;20056;-78
2022/05/03 11:56:01;;;;;;;6.78;2.30;;;;;;;;;;4917405;29;20056;-78
2022/05/03 11:58:46;;;;;;;4.80;2.03;;;;;;;;;;4916774;29;20060;-78
2022/05/03 12:01:33;;;;;;;3.55;2.50;;;;;;;;;;4917458;29;20052;-78
2022/05/03 12:04:20;;;;;;;3.25;2.13;;;;;;;;;;4926866;29;20052;-77
2022/05/03 12:07:05;;;;;;;6.13;2.75;;;;;;;;;;4927151;29;20048;-77
2022/05/03 12:09:50;;;;;;;3.45;2.47;;;;;;;;;;4927251;29;20047;-77
2022/05/03 12:12:45;;;;;;;4.47;2.28;;;;;;;;;;4930052;29;20043;-77
2022/05/03 12:15:31;;;;;;;4.18;2.38;;;;;;;;;;4927572;29;20056;-76
2022/05/03 12:18:23;;;;;;;2.78;1.70;;;;;;;;;;4929285;29;20490;-77
2022/05/03 12:21:12;;;;;;;5.60;2.00;;;;;;;;;;4924837;29;20060;-78
2022/05/03 12:24:07;;;;;;;2.88;1.52;;;;;;;;;;4907660;29;20424;-77
2022/05/03 12:27:09;;;;;;;2.90;1.80;;;;;;;;;;4922265;29;20436;-76
2022/05/03 12:29:54;;;;;;;3.80;2.42;;;;;;;;;;4920867;29;20055;-76
2022/05/03 12:32:40;;;;;;;4.57;2.00;;;;;;;;;;4926166;29;20048;-77
2022/05/03 12:35:30;;;;;;;2.50;1.80;;;;;;;;;;4920389;29;20056;-78
2022/05/03 12:38:18;;;;;;;3.55;1.90;;;;;;;;;;4920066;29;20047;-76
2022/05/03 12:41:04;;;;;;;5.07;2.35;;;;;;;;;;4928594;29;20052;-76
2022/05/03 12:44:06;;;;;;;3.22;2.40;;;;;;;;;;4945713;29;20431;-77
2022/05/03 12:47:01;;;;;;;4.57;2.10;;;;;;;;;;4945054;29;20048;-77
2022/05/03 12:49:47;;;;;;;4.20;3.67;;;;;;;;;;4938439;29;20051;-78
2022/05/03 12:52:32;;;;;;;4.70;1.90;;;;;;;;;;4910489;29;20044;-78
2022/05/03 12:55:19;;;;;;;3.15;1.83;;;;;;;;;;4926396;29;20048;-78
2022/05/03 12:58:22;;;;;;;2.75;1.90;;;;;;;;;;4925611;29;20059;-77
2022/05/03 13:01:10;;;;;;;3.40;1.70;;;;;;;;;;4945092;29;20044;-77
2022/05/03 13:03:56;;;;;;;6.43;1.75;;;;;;;;;;4945142;29;20051;-77
2022/05/03 13:06:42;;;;;;;3.92;1.92;;;;;;;;;;4944495;29;20043;-77
2022/05/03 13:09:30;;;;;;;2.58;1.85;;;;;;;;;;4945697;29;20798;-78
2022/05/03 13:12:15;;;;;;;4.03;1.85;;;;;;;;;;4942224;29;20435;-76
2022/05/03 13:15:01;;;;;;;4.82;2.22;;;;;;;;;;4934786;29;20047;-79
2022/05/03 13:17:47;;;;;;;2.47;2.17;;;;;;;;;;4932032;29;20048;-77
2022/05/03 13:20:33;;;;;;;3.53;2.00;;;;;;;;;;4930246;29;20487;-77
2022/05/03 13:23:18;;;;;;;3.63;2.05;;;;;;;;;;4938552;29;20043;-76
2022/05/03 13:26:04;;;;;;;3.78;2.08;;;;;;;;;;4934120;29;20055;-77
2022/05/03 13:28:50;;;;;;;6.25;2.25;;;;;;;;;;4929515;29;20044;-77
2022/05/03 13:31:35;;;;;;;3.38;2.00;;;;;;;;;;4929938;29;20729;-76
2022/05/03 13:34:21;;;;;;;2.78;2.00;;;;;;;;;;4933815;29;20048;-79
2022/05/03 13:40:28;;;;;;;4.97;1.70;;;;;;;;;;4906689;29;20052;-78
2022/05/03 13:43:14;;;;;;;4.18;1.80;;;;;;;;;;4936196;29;20044;-76
2022/05/03 13:45:59;;;;;;;2.70;1.88;;;;;;;;;;4938155;29;20044;-76
2022/05/03 13:48:45;;;;;;;3.05;2.20;;;;;;;;;;4932595;29;20048;-77
2022/05/03 13:51:33;;;;;;;2.97;1.90;;;;;;;;;;4932429;29;20051;-77
2022/05/03 13:54:19;;;;;;;4.10;1.70;;;;;;;;;;4918189;29;20052;-77
2022/05/03 13:57:05;;;;;;;2.88;2.03;;;;;;;;;;4912522;29;20063;-79
2022/05/03 13:59:50;;;;;;;5.50;2.70;;;;;;;;;;4924480;29;20045;-78
2022/05/03 14:02:42;;;;;;;6.53;2.25;;;;;;;;;;4922709;29;20056;-78
2022/05/03 14:05:28;;;;;;;3.22;2.10;;;;;;;;;;4906139;29;20056;-77
2022/05/03 14:08:14;;;;;;;3.58;2.15;;;;;;;;;;4906510;29;20053;-78
2022/05/03 14:11:00;;;;;;;4.57;2.05;;;;;;;;;;4905850;29;20044;-77
2022/05/03 14:13:46;;;;;;;3.15;2.00;;;;;;;;;;4911238;29;20056;-78
2022/05/03 14:16:31;;;;;;;3.58;2.08;;;;;;;;;;4913988;29;20048;-76
2022/05/03 14:19:17;;;;;;;7.50;2.88;;;;;;;;;;4925404;29;20048;-78
2022/05/03 14:22:03;;;;;;;5.03;2.70;;;;;;;;;;4925702;29;20480;-77
2022/05/03 14:24:48;;;;;;;2.92;2.08;;;;;;;;;;4926224;29;20052;-77
2022/05/03 14:27:33;;;;;;;2.17;1.70;;;;;;;;;;4924222;29;20044;-76
2022/05/03 14:30:19;;;;;;;4.82;1.98;;;;;;;;;;4925232;29;20048;-78
2022/05/03 14:33:06;;;;;;;2.92;1.88;;;;;;;;;;4917767;29;20408;-77
2022/05/03 14:35:51;;;;;;;5.70;1.90;;;;;;;;;;4924490;29;20048;-76
2022/05/03 14:38:37;;;;;;;3.17;2.00;;;;;;;;;;4924261;29;20040;-76
2022/05/03 14:41:22;;;;;;;5.93;2.13;;;;;;;;;;4925324;29;20388;-76
2022/05/03 14:44:08;;;;;;;2.88;2.00;;;;;;;;;;4924472;29;20056;-76
2022/05/03 14:46:53;;;;;;;4.90;2.10;;;;;;;;;;4924202;29;20048;-77
2022/05/03 14:49:41;;;;;;;1.92;1.60;;;;;;;;;;4924539;29;20412;-77
2022/05/03 14:52:26;;;;;;;4.15;2.00;;;;;;;;;;4924165;29;20056;-77
2022/05/03 14:55:12;;;;;;;4.10;2.30;;;;;;;;;;4924081;29;20047;-77
2022/05/03 15:04:05;;;;;;;3.17;2.05;;;;;;;;;;4931152;29;20085;-78
2022/05/03 15:06:52;;;;;;;4.88;2.08;;;;;;;;;;4929011;29;20044;-77
2022/05/03 15:09:37;;;;;;;4.07;1.90;;;;;;;;;;4905052;29;20044;-76
2022/05/03 15:12:23;;;;;;;3.28;2.00;;;;;;;;;;4905194;29;20405;-77
2022/05/03 15:15:11;;;;;;;2.83;1.95;;;;;;;;;;4903931;29;20053;-77
2022/05/03 15:17:56;;;;;;;4.90;2.45;;;;;;;;;;4904490;29;20048;-77
2022/05/03 15:20:42;;;;;;;3.40;2.08;;;;;;;;;;4909875;29;20405;-77
2022/05/03 15:26:31;;;;;;;7.10;2.30;;;;;;;;;;4917538;29;20048;-77
2022/05/03 15:29:16;;;;;;;5.43;2.22;;;;;;;;;;4898837;29;20044;-77
2022/05/03 15:32:31;;;;;;;5.45;2.58;;;;;;;;;;4915333;29;20044;-77
2022/05/03 15:35:17;;;;;;;4.43;2.40;;;;;;;;;;4904555;29;20053;-77
2022/05/03 15:38:02;;;;;;;3.78;2.00;;;;;;;;;;4923925;29;20055;-80
2022/05/03 15:40:47;;;;;;;3.28;2.10;;;;;;;;;;4922406;29;20039;-77
2022/05/03 15:43:34;;;;;;;4.70;2.60;;;;;;;;;;4935964;29;20056;-76
2022/05/03 15:46:19;;;;;;;4.53;2.55;;;;;;;;;;4922310;29;20434;-77
2022/05/03 15:49:05;;;;;;;4.30;2.35;;;;;;;;;;4940174;29;20415;-78
2022/05/03 15:51:52;;;;;;;3.25;2.17;;;;;;;;;;4930055;29;20039;-77
2022/05/03 15:54:38;;;;;;;5.15;2.05;;;;;;;;;;4935323;29;20048;-78
2022/05/03 15:57:25;;;;;;;3.72;2.00;;;;;;;;;;4929456;29;20056;-76
2022/05/03 16:00:13;;;;;;;2.45;1.92;;;;;;;;;;4930158;29;20056;-78
2022/05/03 16:02:59;;;;;;;2.60;1.90;;;;;;;;;;4938598;29;20414;-78
2022/05/03 16:05:44;;;;;;;5.38;2.30;;;;;;;;;;4932031;29;20052;-79
2022/05/03 16:08:29;;;;;;;3.40;2.35;;;;;;;;;;4929094;29;20055;-75
2022/05/03 16:11:15;;;;;;;2.58;2.00;;;;;;;;;;4931732;29;20048;-75
2022/05/03 16:14:01;;;;;;;4.05;2.30;;;;;;;;;;4940083;29;20047;-75
2022/05/03 16:16:47;;;;;;;9.25;3.90;;;;;;;;;;4936573;29;20052;-76
2022/05/03 16:19:32;;;;;;;7.93;3.88;;;;;;;;;;4941093;29;20056;-76
2022/05/03 16:22:18;;;;;;;6.63;2.92;;;;;;;;;;4941161;29;20051;-75
2022/05/03 16:25:04;;;;;;;4.82;2.30;;;;;;;;;;4948950;29;20055;-74
2022/05/03 16:27:49;;;;;;;4.43;2.40;;;;;;;;;;4937754;29;20048;-74
2022/05/03 16:30:35;;;;;;;9.35;2.80;;;;;;;;;;4926020;29;20056;-74
2022/05/03 16:33:21;;;;;;;4.38;2.38;;;;;;;;;;4924192;29;20052;-75
2022/05/03 16:42:17;;;;;;;6.32;2.95;;;;;;;;;;4910243;29;20408;-75
2022/05/03 16:45:03;;;;;;;5.35;2.47;;;;;;;;;;4916541;29;20052;-76
2022/05/03 16:47:49;;;;;;;4.72;2.65;;;;;;;;;;4920848;29;20052;-76
2022/05/03 16:50:35;;;;;;;4.05;2.60;;;;;;;;;;4910928;29;20056;-75
2022/05/03 16:53:20;;;;;;;6.28;2.63;;;;;;;;;;4912601;29;20056;-75
2022/05/03 16:56:06;;;;;;;90.72;48.47;;;;;;;;;;4909997;29;20436;-75
2022/05/03 16:58:52;;;;;;;6.80;3.78;;;;;;;;;;4909303;29;20480;-76
2022/05/03 17:01:37;;;;;;;9.70;3.38;;;;;;;;;;4907681;29;20056;-75
2022/05/03 17:04:22;;;;;;;6.82;3.60;;;;;;;;;;4910897;29;20049;-74
2022/05/03 17:07:08;;;;;;;8.48;5.80;;;;;;;;;;4931510;29;20040;-76
2022/05/03 17:09:54;;;;;;;6.50;3.20;;;;;;;;;;4913141;29;20049;-75
2022/05/03 17:12:39;;;;;;;6.95;3.30;;;;;;;;;;4910855;29;20053;-76
2022/05/03 17:15:24;;;;;;;7.35;3.63;;;;;;;;;;4911340;29;20052;-76
2022/05/03 17:18:10;;;;;;;9.18;3.78;;;;;;;;;;4911043;29;20052;-77
2022/05/03 17:20:56;;;;;;;7.03;3.60;;;;;;;;;;4910752;29;20405;-75
2022/05/03 17:23:42;;;;;;;7.15;3.92;;;;;;;;;;4906568;29;20053;-76
2022/05/03 17:26:28;;;;;;;13.13;4.93;;;;;;;;;;4920623;29;20048;-77
2022/05/03 17:29:14;;;;;;;12.80;6.03;;;;;;;;;;4925792;29;20056;-75
2022/05/03 17:32:00;;;;;;;13.02;6.07;;;;;;;;;;4928991;29;20064;-75
2022/05/03 17:34:46;;;;;;;12.25;6.25;;;;;;;;;;4931608;29;20047;-75
2022/05/03 17:37:31;;;;;;;8.05;5.35;;;;;;;;;;4929366;29;20489;-75